Terminal Aerodrome Forecast
Issued by NWS Memphis, TN

Home | Current Version | Previous Version | Text Only | Print | Product List | Glossary On
Versions: 1 2 3 4 5 6 7 8 9 10 11 12 13 14 15 16 17 18 19 20
842
FTUS44 KMEG 170106 AAA
TAFJBR
TAF AMD
KJBR 170106Z 1701/1724 25007G15KT P6SM VCSH OVC010
      TEMPO 1701/1705 2SM TSRA OVC005CB
     FM170700 25008KT P6SM OVC020
     FM171800 27008KT P6SM OVC100=

USA.gov is the U.S. government's official web portal to all federal, state and local government web resources and services.